Time;durP1;ratioP1;P1;durP2;ratioP2;P2;SDS_P1;SDS_P2;PMS_P1;PMS_P2;Temp;Humidity;BMP_temperature;BMP_pressure;BME280_temperature;BME280_humidity;BME280_pressure;Samples;Min_cycle;Max_cycle;Signal;HPM_P1;HPM_P2
2023/10/05 00:02:05;;;;;;;1.80;1.38;;;7.60;99.90;;;;;;6152302;28;20063;-78
2023/10/05 00:05:21;;;;;;;2.80;2.53;;;7.70;99.90;;;;;;6154044;28;20528;-78
2023/10/05 00:08:29;;;;;;;3.95;2.00;;;7.70;99.90;;;;;;6155333;28;20094;-76
2023/10/05 00:11:41;;;;;;;2.33;1.95;;;7.60;99.90;;;;;;6154887;28;20043;-79
2023/10/05 00:15:00;;;;;;;2.15;1.40;;;7.60;99.90;;;;;;6175495;28;20081;-78
2023/10/05 00:18:09;;;;;;;4.30;1.83;;;7.60;99.90;;;;;;6153802;28;20043;-79
2023/10/05 00:21:18;;;;;;;2.88;1.63;;;7.60;99.90;;;;;;6151273;28;20074;-78
2023/10/05 00:24:29;;;;;;;2.45;1.90;;;7.50;99.90;;;;;;6149208;28;20051;-79
2023/10/05 00:27:35;;;;;;;2.90;2.45;;;7.50;99.90;;;;;;6172372;28;20115;-79
2023/10/05 00:30:40;;;;;;;2.20;2.00;;;7.50;99.90;;;;;;6174474;28;20054;-79
2023/10/05 00:33:43;;;;;;;2.33;1.50;;;7.50;99.90;;;;;;6154116;28;20178;-77
2023/10/05 00:36:50;;;;;;;5.10;2.10;;;7.50;99.90;;;;;;6154896;28;20119;-80
2023/10/05 00:39:54;;;;;;;2.03;1.77;;;7.50;99.90;;;;;;6152418;28;20047;-78
2023/10/05 00:43:06;;;;;;;2.17;1.60;;;7.50;99.90;;;;;;6138668;28;20055;-78
2023/10/05 00:46:11;;;;;;;3.92;1.85;;;7.50;99.90;;;;;;6156409;28;20043;-78
2023/10/05 00:49:19;;;;;;;1.60;1.50;;;7.50;99.90;;;;;;6148972;28;20039;-77
2023/10/05 00:52:26;;;;;;;;;;;7.50;99.90;;;;;;6158576;28;20086;-78
2023/10/05 00:55:31;;;;;;;2.55;2.03;;;7.50;99.90;;;;;;6155974;28;19929;-77
2023/10/05 00:58:38;;;;;;;3.33;1.50;;;7.50;99.90;;;;;;6146481;28;20051;-77
2023/10/05 01:02:03;;;;;;;3.13;2.38;;;7.50;99.90;;;;;;6148252;28;20512;-77
2023/10/05 01:05:15;;;;;;;2.30;1.45;;;7.40;99.90;;;;;;6150310;28;20054;-79
2023/10/05 01:08:23;;;;;;;4.97;1.70;;;7.40;99.90;;;;;;6155618;28;20051;-79
2023/10/05 01:11:34;;;;;;;1.73;1.42;;;7.40;99.90;;;;;;6155307;28;20058;-78
2023/10/05 01:14:40;;;;;;;3.25;1.95;;;7.40;99.90;;;;;;6144976;28;20051;-79
2023/10/05 01:17:51;;;;;;;3.90;1.15;;;7.40;99.90;;;;;;6155432;28;20047;-79
2023/10/05 01:21:02;;;;;;;2.65;1.42;;;7.50;99.90;;;;;;6153526;28;20058;-78
2023/10/05 01:24:07;;;;;;;2.08;1.77;;;7.50;99.90;;;;;;6141056;28;20075;-78
2023/10/05 01:27:11;;;;;;;3.03;1.60;;;7.40;99.90;;;;;;6147920;28;20054;-78
2023/10/05 01:30:13;;;;;;;2.22;1.05;;;7.30;99.90;;;;;;6149002;28;20143;-77
2023/10/05 01:33:14;;;;;;;5.47;1.95;;;7.20;99.90;;;;;;6156672;28;20058;-77
2023/10/05 01:36:17;;;;;;;2.80;2.35;;;7.20;99.90;;;;;;6157451;28;20134;-78
2023/10/05 01:39:21;;;;;;;3.75;1.92;;;7.20;99.90;;;;;;6163199;28;20039;-78
2023/10/05 01:42:23;;;;;;;1.63;1.38;;;7.20;99.90;;;;;;6157438;28;20054;-78
2023/10/05 01:45:25;;;;;;;2.30;1.63;;;7.20;99.90;;;;;;6165121;28;20424;-78
2023/10/05 01:48:30;;;;;;;3.13;1.88;;;7.10;99.90;;;;;;6156725;28;20134;-78
2023/10/05 01:51:32;;;;;;;3.20;1.58;;;7.10;99.90;;;;;;6146441;29;20062;-77
2023/10/05 01:54:35;;;;;;;2.10;1.50;;;7.00;99.90;;;;;;6165501;29;20043;-78
2023/10/05 01:57:37;;;;;;;2.35;2.10;;;7.00;99.90;;;;;;6152417;29;20126;-77
2023/10/05 02:00:40;;;;;;;2.33;2.13;;;7.00;99.90;;;;;;6138052;29;20056;-78
2023/10/05 02:03:41;;;;;;;2.25;1.63;;;7.00;99.90;;;;;;6137106;29;20051;-77
2023/10/05 02:06:48;;;;;;;4.20;2.22;;;7.00;99.90;;;;;;6146280;28;20504;-78
2023/10/05 02:09:53;;;;;;;1.70;1.13;;;7.00;99.90;;;;;;6128801;29;20051;-78
2023/10/05 02:12:55;;;;;;;2.72;1.45;;;7.10;99.90;;;;;;6129104;29;20047;-77
2023/10/05 02:15:59;;;;;;;2.88;2.40;;;7.10;99.90;;;;;;6128542;29;20048;-78
2023/10/05 02:19:03;;;;;;;2.58;1.45;;;7.10;99.90;;;;;;6140334;28;20043;-78
2023/10/05 02:22:10;;;;;;;5.38;2.42;;;7.20;99.90;;;;;;6139611;28;20692;-78
2023/10/05 02:25:19;;;;;;;1.70;1.58;;;7.20;99.90;;;;;;6136525;29;20489;-77
2023/10/05 02:28:25;;;;;;;5.85;1.95;;;7.30;99.90;;;;;;6129451;29;20059;-78
2023/10/05 02:31:28;;;;;;;3.58;1.48;;;7.30;99.90;;;;;;6128396;29;20055;-78
2023/10/05 02:34:35;;;;;;;3.00;1.83;;;7.40;99.90;;;;;;6147932;29;20088;-77
2023/10/05 02:37:40;;;;;;;2.05;1.75;;;7.40;99.90;;;;;;6145065;29;20424;-78
2023/10/05 02:40:46;;;;;;;4.00;1.48;;;7.50;99.90;;;;;;6145967;28;20133;-78
2023/10/05 02:43:52;;;;;;;2.08;1.88;;;7.50;99.90;;;;;;6174340;28;20404;-78
2023/10/05 02:46:54;;;;;;;4.70;1.70;;;7.60;99.90;;;;;;6165355;28;20071;-78
2023/10/05 02:49:57;;;;;;;2.95;1.70;;;7.60;99.90;;;;;;6159930;28;20054;-78
2023/10/05 02:53:04;;;;;;;3.20;1.58;;;7.60;99.90;;;;;;6152316;28;20090;-80
2023/10/05 02:56:27;;;;;;;2.47;1.27;;;7.60;99.90;;;;;;6162601;28;20411;-78
2023/10/05 02:59:29;;;;;;;5.07;1.85;;;7.60;99.90;;;;;;6157346;28;20054;-78
2023/10/05 03:02:37;;;;;;;2.30;2.05;;;7.60;99.90;;;;;;6167509;28;20047;-78
2023/10/05 03:05:41;;;;;;;1.67;1.58;;;7.60;99.90;;;;;;6151215;28;20047;-78
2023/10/05 03:08:46;;;;;;;4.68;1.77;;;7.70;99.90;;;;;;6151957;28;20106;-77
2023/10/05 03:11:50;;;;;;;2.60;1.50;;;7.70;99.90;;;;;;6151071;28;20087;-78
2023/10/05 03:14:54;;;;;;;2.78;1.80;;;7.70;99.90;;;;;;6151416;28;20071;-79
2023/10/05 03:17:57;;;;;;;2.55;1.73;;;7.80;99.90;;;;;;6154100;28;20051;-78
2023/10/05 03:20:59;;;;;;;2.40;1.50;;;7.80;99.90;;;;;;6164438;28;20058;-76
2023/10/05 03:24:00;;;;;;;8.00;1.73;;;7.80;99.90;;;;;;6159023;28;20054;-78
2023/10/05 03:27:04;;;;;;;1.88;1.60;;;7.80;99.90;;;;;;6150663;28;20055;-78
2023/10/05 03:30:07;;;;;;;4.38;2.00;;;7.80;99.90;;;;;;6160903;28;20054;-77
2023/10/05 03:33:10;;;;;;;1.92;1.63;;;7.90;99.90;;;;;;6150738;28;20421;-78
2023/10/05 03:36:13;;;;;;;3.33;1.40;;;7.90;99.90;;;;;;6150517;28;20437;-77
2023/10/05 03:39:17;;;;;;;1.67;1.58;;;8.00;99.90;;;;;;6158388;28;20043;-77
2023/10/05 03:42:22;;;;;;;2.83;1.98;;;8.00;99.90;;;;;;6150129;28;20126;-78
2023/10/05 03:45:24;;;;;;;3.92;2.05;;;8.00;99.90;;;;;;6158237;28;20058;-78
2023/10/05 03:48:26;;;;;;;2.22;1.63;;;8.10;99.90;;;;;;6150582;28;20043;-77
2023/10/05 03:51:29;;;;;;;2.17;1.98;;;8.00;99.90;;;;;;6158487;28;20059;-77
2023/10/05 03:54:33;;;;;;;3.72;2.17;;;8.10;99.90;;;;;;6157621;28;20516;-78
2023/10/05 03:57:36;;;;;;;3.85;1.67;;;8.10;99.90;;;;;;6158084;28;20051;-78
2023/10/05 04:00:38;;;;;;;1.63;1.48;;;8.10;99.90;;;;;;6157970;28;20055;-77
2023/10/05 04:03:40;;;;;;;8.85;1.92;;;8.10;99.90;;;;;;6149204;28;20198;-78
2023/10/05 04:06:42;;;;;;;1.45;1.33;;;8.10;99.90;;;;;;6149308;28;20118;-78
2023/10/05 04:09:47;;;;;;;2.20;1.90;;;8.20;99.90;;;;;;6149936;28;20050;-77
2023/10/05 04:12:51;;;;;;;3.97;2.03;;;8.10;99.90;;;;;;6171451;28;20092;-78
2023/10/05 04:15:53;;;;;;;2.17;1.48;;;8.20;99.90;;;;;;6153673;28;20047;-78
2023/10/05 04:18:55;;;;;;;2.15;1.52;;;8.20;99.90;;;;;;6153617;28;20046;-78
2023/10/05 04:21:57;;;;;;;6.53;2.20;;;8.20;99.90;;;;;;6153339;28;20609;-78
2023/10/05 04:25:00;;;;;;;2.83;2.17;;;8.20;99.90;;;;;;6153202;28;20051;-78
2023/10/05 04:28:03;;;;;;;1.75;1.48;;;8.20;99.90;;;;;;6154358;28;20079;-78
2023/10/05 04:31:11;;;;;;;1.73;1.60;;;8.20;99.90;;;;;;6153829;28;20528;-78
2023/10/05 04:34:14;;;;;;;3.00;1.67;;;8.30;99.90;;;;;;6157767;28;20529;-79
2023/10/05 04:37:15;;;;;;;2.13;1.77;;;8.20;99.90;;;;;;6163144;28;20043;-79
2023/10/05 04:40:20;;;;;;;4.15;2.25;;;8.20;99.90;;;;;;6158021;28;20153;-79
2023/10/05 04:43:24;;;;;;;2.00;1.50;;;8.20;99.90;;;;;;6154919;28;20047;-79
2023/10/05 04:46:26;;;;;;;5.13;1.88;;;8.20;99.90;;;;;;6155833;28;20054;-79
2023/10/05 04:49:28;;;;;;;3.08;2.00;;;8.20;99.90;;;;;;6156018;28;20126;-79
2023/10/05 04:52:33;;;;;;;2.28;1.70;;;8.20;99.90;;;;;;6158019;28;20047;-79
2023/10/05 04:55:41;;;;;;;3.38;2.40;;;8.20;99.90;;;;;;6160889;28;20054;-78
2023/10/05 04:59:18;;;;;;;2.33;1.92;;;8.20;99.90;;;;;;6171995;28;20596;-78
2023/10/05 05:02:57;;;;;;;2.35;1.92;;;8.20;99.90;;;;;;6178823;28;20043;-79
2023/10/05 05:06:08;;;;;;;7.45;2.35;;;8.30;99.90;;;;;;6182463;28;20508;-79
2023/10/05 05:09:12;;;;;;;6.93;1.73;;;8.30;99.90;;;;;;6168974;28;20043;-79
2023/10/05 05:12:17;;;;;;;5.80;2.40;;;8.30;99.90;;;;;;6154117;28;20051;-79
2023/10/05 05:15:20;;;;;;;1.98;1.88;;;8.30;99.90;;;;;;6153998;28;20051;-79
2023/10/05 05:18:22;;;;;;;4.10;2.40;;;8.40;99.90;;;;;;6156037;28;20047;-79
2023/10/05 05:21:23;;;;;;;3.63;2.00;;;8.50;99.90;;;;;;6158170;28;20047;-80
2023/10/05 05:24:28;;;;;;;1.27;1.15;;;8.50;99.90;;;;;;6159028;28;20055;-79
2023/10/05 05:27:30;;;;;;;2.40;2.03;;;8.50;99.90;;;;;;6159011;28;20047;-79
2023/10/05 05:30:36;;;;;;;7.85;2.28;;;8.50;99.90;;;;;;6158342;28;20054;-80
2023/10/05 05:33:38;;;;;;;7.60;2.33;;;8.50;99.90;;;;;;6158956;28;20077;-80
2023/10/05 05:36:41;;;;;;;4.40;1.80;;;8.50;99.90;;;;;;6158303;28;20051;-79
2023/10/05 05:39:42;;;;;;;4.45;2.08;;;8.60;99.90;;;;;;6174321;28;20149;-79
2023/10/05 05:42:45;;;;;;;4.55;2.20;;;8.60;99.90;;;;;;6165636;28;20051;-79
2023/10/05 05:45:49;;;;;;;5.40;3.10;;;8.60;99.90;;;;;;6157082;28;20043;-79
2023/10/05 05:48:52;;;;;;;6.95;1.77;;;8.60;99.90;;;;;;6158526;28;20067;-80
2023/10/05 05:51:57;;;;;;;2.85;1.90;;;8.70;99.90;;;;;;6157358;28;20524;-78
2023/10/05 05:55:09;;;;;;;6.13;2.88;;;8.60;99.90;;;;;;6157633;28;20063;-79
2023/10/05 05:58:14;;;;;;;2.97;1.50;;;8.70;99.90;;;;;;6157950;28;20051;-79
2023/10/05 06:01:19;;;;;;;1.92;1.83;;;8.70;99.90;;;;;;6157979;28;20046;-80
2023/10/05 06:04:21;;;;;;;4.47;2.15;;;8.80;99.90;;;;;;6172045;28;20050;-80
2023/10/05 06:07:25;;;;;;;2.63;1.63;;;8.80;99.90;;;;;;6162411;28;20044;-80
2023/10/05 06:10:34;;;;;;;3.78;3.00;;;8.90;99.90;;;;;;6165727;28;20047;-80
2023/10/05 06:13:37;;;;;;;2.30;1.73;;;8.90;99.90;;;;;;6157933;28;20054;-79
2023/10/05 06:16:40;;;;;;;3.15;2.33;;;9.00;99.90;;;;;;6157869;28;20059;-80
2023/10/05 06:19:42;;;;;;;2.35;1.88;;;9.10;99.90;;;;;;6157853;28;20040;-79
2023/10/05 06:22:45;;;;;;;2.33;1.80;;;9.20;99.90;;;;;;6173980;28;20420;-79
2023/10/05 06:25:48;;;;;;;3.35;2.63;;;9.40;99.90;;;;;;6181438;28;20050;-80
2023/10/05 06:28:50;;;;;;;2.15;1.58;;;9.50;99.90;;;;;;6180718;28;20059;-80
2023/10/05 06:31:53;;;;;;;5.15;2.60;;;9.60;99.90;;;;;;6178163;28;20136;-80
2023/10/05 06:34:55;;;;;;;6.68;3.05;;;9.70;99.90;;;;;;6181458;28;20046;-80
2023/10/05 06:37:57;;;;;;;6.25;2.25;;;9.90;99.90;;;;;;6182131;28;20068;-80
2023/10/05 06:40:59;;;;;;;1.90;1.70;;;9.90;99.90;;;;;;6180069;28;20052;-80
2023/10/05 06:44:02;;;;;;;5.97;2.10;;;10.10;99.90;;;;;;6156964;28;20051;-80
2023/10/05 06:47:05;;;;;;;5.28;2.25;;;10.10;99.90;;;;;;6157262;28;20094;-79
2023/10/05 06:50:09;;;;;;;4.80;2.58;;;10.20;99.90;;;;;;6156596;28;20043;-80
2023/10/05 06:53:11;;;;;;;6.50;2.67;;;10.40;99.90;;;;;;6156774;28;20465;-79
2023/10/05 06:56:13;;;;;;;4.93;1.92;;;10.50;99.90;;;;;;6156820;28;20055;-80
2023/10/05 06:59:14;;;;;;;6.80;2.65;;;10.70;99.90;;;;;;6118304;28;20035;-80
2023/10/05 07:02:18;;;;;;;2.15;1.92;;;10.90;99.90;;;;;;6174813;28;20077;-80
2023/10/05 07:05:20;;;;;;;5.85;2.30;;;11.10;99.90;;;;;;6164041;28;20524;-79
2023/10/05 07:08:21;;;;;;;3.45;3.15;;;11.20;99.90;;;;;;6186597;28;20054;-82
2023/10/05 07:11:24;;;;;;;4.78;2.22;;;11.40;99.90;;;;;;6174433;28;20439;-78
2023/10/05 07:14:26;;;;;;;3.38;1.98;;;11.50;99.90;;;;;;6165075;28;20081;-75
2023/10/05 07:17:29;;;;;;;3.25;1.92;;;11.60;99.90;;;;;;6170530;28;20051;-78
2023/10/05 07:20:30;;;;;;;3.58;2.58;;;11.70;99.90;;;;;;6164883;28;20134;-77
2023/10/05 07:23:32;;;;;;;7.88;2.75;;;11.70;99.90;;;;;;6167927;28;20050;-76
2023/10/05 07:26:34;;;;;;;3.20;2.10;;;11.80;99.90;;;;;;6164282;28;20047;-78
2023/10/05 07:29:36;;;;;;;3.95;2.55;;;11.90;99.90;;;;;;6169523;28;20042;-77
2023/10/05 07:32:40;;;;;;;3.60;2.17;;;11.90;99.90;;;;;;6165637;28;20054;-77
2023/10/05 07:35:42;;;;;;;2.90;2.00;;;12.10;99.90;;;;;;6162747;28;20079;-80
2023/10/05 07:38:44;;;;;;;5.38;2.55;;;12.20;99.90;;;;;;6169898;28;20051;-77
2023/10/05 07:41:47;;;;;;;4.85;2.63;;;12.30;99.90;;;;;;6161059;28;20054;-78
2023/10/05 07:44:49;;;;;;;2.97;2.65;;;12.40;99.90;;;;;;6163271;28;20657;-79
2023/10/05 07:47:52;;;;;;;4.32;2.92;;;12.50;99.90;;;;;;6171142;28;20058;-78
2023/10/05 07:50:54;;;;;;;6.22;2.85;;;12.60;99.90;;;;;;6163872;28;20057;-78
2023/10/05 07:53:56;;;;;;;5.13;3.25;;;12.80;99.90;;;;;;6167623;28;20074;-78
2023/10/05 07:56:57;;;;;;;7.57;3.25;;;12.90;99.90;;;;;;6165128;28;20055;-78
2023/10/05 07:59:59;;;;;;;4.40;3.17;;;13.10;99.90;;;;;;6170933;28;20520;-79
2023/10/05 08:03:03;;;;;;;3.17;2.83;;;13.30;99.90;;;;;;6164812;28;20050;-78
2023/10/05 08:06:05;;;;;;;3.85;3.08;;;13.40;99.90;;;;;;6168710;28;20047;-77
2023/10/05 08:09:07;;;;;;;7.22;4.15;;;13.60;99.90;;;;;;6178424;28;20065;-78
2023/10/05 08:12:08;;;;;;;3.60;2.80;;;13.90;99.90;;;;;;6182111;28;20061;-78
2023/10/05 08:15:14;;;;;;;7.70;3.10;;;14.30;99.90;;;;;;6168035;28;20047;-79
2023/10/05 08:18:17;;;;;;;4.10;2.20;;;14.90;99.90;;;;;;6170348;28;20067;-80
2023/10/05 08:21:18;;;;;;;3.53;2.70;;;15.40;99.90;;;;;;6168484;28;20081;-78
2023/10/05 08:24:23;;;;;;;5.97;2.88;;;15.80;99.90;;;;;;6172922;28;20079;-78
2023/10/05 08:27:25;;;;;;;8.23;2.97;;;16.10;99.90;;;;;;6167068;28;20101;-78
2023/10/05 08:30:33;;;;;;;6.05;2.65;;;16.10;99.90;;;;;;6165879;28;20058;-78
2023/10/05 08:33:36;;;;;;;7.53;2.33;;;16.00;99.90;;;;;;6168006;28;20066;-79
2023/10/05 08:36:38;;;;;;;5.75;2.47;;;15.90;99.90;;;;;;6160489;28;20061;-79
2023/10/05 08:39:41;;;;;;;4.30;2.53;;;15.90;99.90;;;;;;6168412;28;20051;-77
2023/10/05 08:42:46;;;;;;;4.25;2.47;;;15.90;99.90;;;;;;6168303;28;20047;-77
2023/10/05 08:45:51;;;;;;;7.45;2.10;;;15.80;99.90;;;;;;6168672;28;20047;-78
2023/10/05 08:48:55;;;;;;;3.85;2.22;;;15.70;99.90;;;;;;6169805;28;20082;-78
2023/10/05 08:51:59;;;;;;;7.80;2.30;;;15.70;99.90;;;;;;6167459;28;20414;-78
2023/10/05 08:55:00;;;;;;;4.28;2.10;;;15.60;99.90;;;;;;6165943;28;20070;-78
2023/10/05 08:58:03;;;;;;;6.55;2.35;;;15.70;99.90;;;;;;6176687;28;20050;-77
2023/10/05 09:01:23;;;;;;;3.10;2.10;;;15.80;99.90;;;;;;6189725;28;20055;-77
2023/10/05 09:04:43;;;;;;;4.60;2.35;;;15.90;99.90;;;;;;6167002;28;20069;-75
2023/10/05 09:07:55;;;;;;;7.10;2.97;;;15.90;99.90;;;;;;6171192;28;20047;-76
2023/10/05 09:10:59;;;;;;;3.03;1.85;;;16.30;99.90;;;;;;6169488;28;20522;-77
2023/10/05 09:14:12;;;;;;;6.07;2.83;;;16.90;99.90;;;;;;6164053;28;20054;-78
2023/10/05 09:17:16;;;;;;;6.68;2.20;;;17.50;99.90;;;;;;6153941;28;20051;-77
2023/10/05 09:20:23;;;;;;;5.32;2.42;;;18.10;99.90;;;;;;6162588;28;20049;-79
2023/10/05 09:23:32;;;;;;;6.78;3.20;;;18.50;99.90;;;;;;6175565;28;20059;-80
2023/10/05 09:26:37;;;;;;;5.53;2.30;;;18.70;99.80;;;;;;6178896;28;20061;-79
2023/10/05 09:29:39;;;;;;;6.63;2.92;;;18.80;99.20;;;;;;6181167;28;20051;-79
2023/10/05 09:32:41;;;;;;;3.53;2.67;;;19.10;98.50;;;;;;6168238;28;20061;-79
2023/10/05 09:35:46;;;;;;;6.15;2.65;;;19.40;97.40;;;;;;6160534;28;20043;-79
2023/10/05 09:38:48;;;;;;;5.22;2.70;;;19.50;96.50;;;;;;6178624;28;20050;-79
2023/10/05 09:41:52;;;;;;;7.55;2.67;;;19.70;96.00;;;;;;6176432;28;20046;-80
2023/10/05 09:44:57;;;;;;;3.75;2.45;;;20.00;94.90;;;;;;6156590;28;20190;-79
2023/10/05 09:48:00;;;;;;;6.22;3.42;;;20.20;94.30;;;;;;6180261;28;20042;-78
2023/10/05 09:51:06;;;;;;;6.13;2.45;;;20.50;93.80;;;;;;6176725;28;20051;-78
2023/10/05 09:54:10;;;;;;;5.68;3.20;;;21.00;93.00;;;;;;6175994;28;20075;-79
2023/10/05 09:57:12;;;;;;;4.32;2.42;;;21.40;91.80;;;;;;6177072;28;20051;-80
2023/10/05 10:00:27;;;;;;;7.82;2.33;;;21.40;91.00;;;;;;6177442;28;20369;-79
2023/10/05 10:03:31;;;;;;;3.88;2.67;;;21.60;90.70;;;;;;6173417;28;20153;-80
2023/10/05 10:06:35;;;;;;;6.50;3.17;;;22.00;90.10;;;;;;6157636;28;20055;-80
2023/10/05 10:09:39;;;;;;;6.28;2.10;;;22.20;88.00;;;;;;6158211;28;20102;-78
2023/10/05 10:12:43;;;;;;;7.20;2.60;;;22.40;87.40;;;;;;6201677;23;20041;-79
2023/10/05 10:15:49;;;;;;;4.53;2.55;;;22.50;85.80;;;;;;6255242;28;20450;-79
2023/10/05 10:18:53;;;;;;;5.35;2.53;;;22.60;85.30;;;;;;6255511;28;20149;-77
2023/10/05 10:22:00;;;;;;;6.20;2.45;;;22.70;84.00;;;;;;6255306;28;20103;-78
2023/10/05 10:25:10;;;;;;;5.32;2.45;;;22.60;83.00;;;;;;6223735;28;20050;-79
2023/10/05 10:28:16;;;;;;;4.30;2.50;;;22.30;82.80;;;;;;6231371;28;20188;-78
2023/10/05 10:31:22;;;;;;;4.97;2.92;;;21.90;82.50;;;;;;6231042;28;20038;-79
2023/10/05 10:34:49;;;;;;;7.90;2.50;;;21.50;82.80;;;;;;6230325;28;20053;-79
2023/10/05 10:37:54;;;;;;;7.22;2.83;;;21.40;83.40;;;;;;6230539;28;20414;-79
2023/10/05 10:41:09;;;;;;;7.45;2.60;;;21.40;83.80;;;;;;6233968;28;20045;-79
2023/10/05 10:44:21;;;;;;;7.97;2.38;;;21.30;82.30;;;;;;6230634;28;20157;-80
2023/10/05 10:47:26;;;;;;;5.32;2.83;;;21.20;82.90;;;;;;6230687;28;20046;-79
2023/10/05 10:50:30;;;;;;;6.32;1.85;;;21.30;83.00;;;;;;6230604;28;20038;-79
2023/10/05 10:53:37;;;;;;;7.93;2.95;;;21.50;82.50;;;;;;6229436;28;20053;-79
2023/10/05 10:56:42;;;;;;;2.85;2.22;;;21.90;81.10;;;;;;6230982;28;20155;-78
2023/10/05 10:59:46;;;;;;;6.22;2.53;;;22.00;80.40;;;;;;6230388;28;20059;-79
2023/10/05 11:02:47;;;;;;;6.63;2.92;;;22.10;80.10;;;;;;6229859;28;20044;-78
2023/10/05 11:05:51;;;;;;;6.75;3.05;;;22.30;79.20;;;;;;6229954;28;20427;-79
2023/10/05 11:08:59;;;;;;;12.68;3.13;;;22.50;78.40;;;;;;6230607;28;20095;-79
2023/10/05 11:12:10;;;;;;;8.10;2.65;;;22.70;77.60;;;;;;6226275;28;20046;-78
2023/10/05 11:15:18;;;;;;;9.63;3.40;;;22.70;76.70;;;;;;6240373;28;20560;-78
2023/10/05 11:18:20;;;;;;;;;;;22.60;76.30;;;;;;6222241;28;20057;-81
2023/10/05 11:21:24;;;;;;;11.00;3.97;;;22.40;77.30;;;;;;6230421;28;19941;-80
2023/10/05 11:24:27;;;;;;;9.40;3.13;;;22.30;77.00;;;;;;6230772;28;20052;-80
2023/10/05 11:27:36;;;;;;;9.30;4.10;;;22.20;76.40;;;;;;6230426;28;20395;-79
2023/10/05 11:30:45;;;;;;;5.13;2.38;;;22.40;76.20;;;;;;6231307;28;20520;-80
2023/10/05 11:33:49;;;;;;;7.47;2.83;;;22.60;75.40;;;;;;6231010;28;20066;-79
2023/10/05 11:36:52;;;;;;;9.30;3.25;;;22.70;74.30;;;;;;6232697;28;20050;-80
2023/10/05 11:39:59;;;;;;;9.30;3.47;;;22.70;74.00;;;;;;6232332;28;20050;-79
2023/10/05 11:43:04;;;;;;;9.10;2.60;;;22.80;73.70;;;;;;6234401;28;20057;-78
2023/10/05 11:46:17;;;;;;;3.67;2.35;;;22.90;73.00;;;;;;6231499;28;20507;-80
2023/10/05 11:49:19;;;;;;;5.30;2.05;;;22.80;72.60;;;;;;6231342;28;20046;-80
2023/10/05 11:52:23;;;;;;;7.10;3.25;;;22.70;72.60;;;;;;6230899;28;20223;-80
2023/10/05 11:55:26;;;;;;;7.90;2.78;;;22.60;72.70;;;;;;6228799;28;20057;-78
2023/10/05 11:58:28;;;;;;;8.60;2.65;;;22.60;72.30;;;;;;6229829;28;20037;-79
2023/10/05 12:01:32;;;;;;;4.45;2.45;;;22.60;72.30;;;;;;6226848;28;20053;-79
2023/10/05 12:04:33;;;;;;;4.65;2.20;;;22.50;71.90;;;;;;6228197;28;20041;-79
2023/10/05 12:07:38;;;;;;;11.80;3.15;;;22.40;71.70;;;;;;6228579;28;20048;-80
2023/10/05 12:10:42;;;;;;;7.03;2.80;;;22.30;71.50;;;;;;6229117;28;20495;-80
2023/10/05 12:13:44;;;;;;;7.43;3.13;;;22.10;71.50;;;;;;6228958;28;20050;-81
2023/10/05 12:16:46;;;;;;;4.82;2.58;;;21.90;72.10;;;;;;6229186;28;20068;-79
2023/10/05 12:19:51;;;;;;;9.98;2.83;;;21.60;72.20;;;;;;6228712;28;20046;-79
2023/10/05 12:22:53;;;;;;;6.70;2.47;;;21.20;73.00;;;;;;6228778;28;20200;-80
2023/10/05 12:25:56;;;;;;;8.60;3.03;;;20.80;72.80;;;;;;6227991;28;20506;-79
2023/10/05 12:28:58;;;;;;;8.30;2.88;;;20.30;73.40;;;;;;6228914;28;20050;-80
2023/10/05 12:32:08;;;;;;;6.78;2.83;;;19.90;74.20;;;;;;6228321;28;20549;-78
2023/10/05 12:35:13;;;;;;;11.07;4.03;;;19.60;75.00;;;;;;6228042;28;20042;-80
2023/10/05 12:38:14;;;;;;;11.60;8.65;;;19.40;75.40;;;;;;6229614;28;20104;-80
2023/10/05 12:41:18;;;;;;;9.63;6.82;;;19.20;76.10;;;;;;6232487;28;20054;-80
2023/10/05 12:44:19;;;;;;;8.38;4.03;;;19.20;76.80;;;;;;6229591;28;20137;-79
2023/10/05 12:47:21;;;;;;;8.55;4.20;;;19.20;76.90;;;;;;6228869;28;20398;-79
2023/10/05 12:50:24;;;;;;;10.85;3.38;;;19.20;77.20;;;;;;6227498;28;20057;-79
2023/10/05 12:53:26;;;;;;;7.45;3.30;;;19.30;77.00;;;;;;6228568;28;20074;-80
2023/10/05 12:56:29;;;;;;;7.38;2.75;;;19.20;76.90;;;;;;6229221;28;20074;-81
2023/10/05 12:59:31;;;;;;;4.93;2.17;;;19.10;77.00;;;;;;6228772;28;20041;-80
2023/10/05 13:02:33;;;;;;;7.28;3.33;;;19.00;77.30;;;;;;6228721;28;20702;-83
2023/10/05 13:05:43;;;;;;;7.72;3.08;;;19.00;77.60;;;;;;6228563;28;20063;-83
2023/10/05 13:08:45;;;;;;;7.43;4.00;;;18.90;78.00;;;;;;6229325;28;20046;-82
2023/10/05 13:11:48;;;;;;;9.18;6.57;;;18.80;78.10;;;;;;6228209;28;20487;-83
2023/10/05 13:14:49;;;;;;;8.10;4.63;;;18.80;78.30;;;;;;6229035;28;20444;-81
2023/10/05 13:17:53;;;;;;;7.93;3.72;;;18.80;78.40;;;;;;6230079;28;20045;-82
2023/10/05 13:20:55;;;;;;;6.78;2.90;;;18.80;78.40;;;;;;6229846;28;20046;-83
2023/10/05 13:23:57;;;;;;;6.25;3.80;;;18.80;78.60;;;;;;6229276;28;20041;-81
2023/10/05 13:27:01;;;;;;;6.35;3.58;;;18.80;79.10;;;;;;6228226;28;20157;-81
2023/10/05 13:30:05;;;;;;;7.65;2.80;;;18.80;79.00;;;;;;6229479;28;20101;-82
2023/10/05 13:33:09;;;;;;;9.80;4.70;;;18.70;79.20;;;;;;6229690;28;20048;-82
2023/10/05 13:36:12;;;;;;;5.18;2.50;;;18.70;79.50;;;;;;6227050;28;20050;-80
2023/10/05 13:39:20;;;;;;;8.07;2.75;;;18.80;79.50;;;;;;6229649;28;20514;-81
2023/10/05 13:42:26;;;;;;;11.90;6.35;;;18.80;79.40;;;;;;6231548;28;20153;-80
2023/10/05 13:45:28;;;;;;;5.53;2.80;;;18.70;79.50;;;;;;6230542;28;20053;-85
2023/10/05 13:48:30;;;;;;;5.97;2.85;;;18.80;80.00;;;;;;6230848;28;20064;-80
2023/10/05 13:51:34;;;;;;;5.15;2.67;;;18.80;79.60;;;;;;6229485;28;20041;-82
2023/10/05 13:54:36;;;;;;;9.55;4.18;;;18.80;79.70;;;;;;6230110;28;20037;-82
2023/10/05 13:57:39;;;;;;;10.45;3.03;;;18.70;79.80;;;;;;6237848;28;20041;-82
2023/10/05 14:00:41;;;;;;;3.95;2.22;;;18.60;80.00;;;;;;6230830;28;20050;-82
2023/10/05 14:03:45;;;;;;;9.38;4.07;;;18.60;80.30;;;;;;6230933;28;20051;-79
2023/10/05 14:06:49;;;;;;;8.23;3.00;;;18.50;80.50;;;;;;6231026;28;20042;-79
2023/10/05 14:09:52;;;;;;;15.15;8.45;;;18.40;80.60;;;;;;6231412;28;20038;-83
2023/10/05 14:12:55;;;;;;;9.52;3.30;;;18.40;80.90;;;;;;6230993;28;20049;-80
2023/10/05 14:16:00;;;;;;;3.78;2.10;;;18.40;81.00;;;;;;6230514;28;20490;-80
2023/10/05 14:19:03;;;;;;;4.15;2.20;;;18.30;81.20;;;;;;6230822;28;20053;-81
2023/10/05 14:22:05;;;;;;;8.57;4.25;;;18.30;81.60;;;;;;6230037;28;20117;-81
2023/10/05 14:25:17;;;;;;;10.23;3.17;;;18.20;81.90;;;;;;6232545;28;20053;-83
2023/10/05 14:28:23;;;;;;;7.18;2.53;;;18.30;82.00;;;;;;6230406;28;20466;-81
2023/10/05 14:31:25;;;;;;;3.85;2.42;;;18.20;82.20;;;;;;6228817;28;20451;-81
2023/10/05 14:34:27;;;;;;;8.35;2.55;;;18.10;82.30;;;;;;6232255;28;20052;-81
2023/10/05 14:37:28;;;;;;;11.05;3.22;;;18.10;82.60;;;;;;6237078;28;20046;-80
2023/10/05 14:40:30;;;;;;;7.60;2.17;;;18.10;82.70;;;;;;6234170;28;20064;-80
2023/10/05 14:43:35;;;;;;;6.22;2.90;;;18.00;83.00;;;;;;6238784;28;20037;-82
2023/10/05 14:46:37;;;;;;;2.63;1.50;;;17.90;83.50;;;;;;6233346;28;20056;-80
2023/10/05 14:49:40;;;;;;;7.47;2.58;;;17.80;83.60;;;;;;6236689;28;20481;-80
2023/10/05 14:52:42;;;;;;;4.85;2.60;;;17.80;83.90;;;;;;6236767;28;20046;-80
2023/10/05 14:55:45;;;;;;;4.43;3.15;;;17.80;84.30;;;;;;6229704;28;20462;-84
2023/10/05 14:58:49;;;;;;;6.32;2.30;;;17.80;84.40;;;;;;6231968;28;20048;-81
2023/10/05 15:01:51;;;;;;;10.07;2.55;;;17.80;84.50;;;;;;6233360;28;20052;-78
2023/10/05 15:04:53;;;;;;;7.93;2.67;;;17.80;84.70;;;;;;6233018;28;20042;-79
2023/10/05 15:07:58;;;;;;;7.38;2.85;;;17.90;85.00;;;;;;6231858;28;20057;-81
2023/10/05 15:11:00;;;;;;;4.00;2.60;;;17.90;85.10;;;;;;6230862;28;20049;-80
2023/10/05 15:14:04;;;;;;;6.85;2.65;;;18.00;85.20;;;;;;6229413;28;20049;-80
2023/10/05 15:17:06;;;;;;;7.60;2.55;;;18.10;85.00;;;;;;6229487;28;20144;-82
2023/10/05 15:20:11;;;;;;;6.95;2.90;;;18.20;84.80;;;;;;6227991;28;20050;-82
2023/10/05 15:23:13;;;;;;;11.38;3.13;;;18.20;84.70;;;;;;6220932;28;20046;-82
2023/10/05 15:26:17;;;;;;;6.05;2.30;;;18.20;84.70;;;;;;6220536;28;20543;-80
2023/10/05 15:29:21;;;;;;;6.47;3.38;;;18.10;84.70;;;;;;6209863;28;20623;-82
2023/10/05 15:32:23;;;;;;;15.77;3.65;;;18.10;84.80;;;;;;6194736;28;20050;-82
2023/10/05 15:35:25;;;;;;;8.73;2.88;;;18.00;84.80;;;;;;6189473;28;20570;-82
2023/10/05 15:38:26;;;;;;;6.60;3.05;;;17.90;85.10;;;;;;6219056;28;20056;-81
2023/10/05 15:41:30;;;;;;;12.18;2.67;;;17.90;85.30;;;;;;6254150;28;20047;-81
2023/10/05 15:44:33;;;;;;;6.25;3.25;;;17.80;85.50;;;;;;6241550;28;20050;-81
2023/10/05 15:47:35;;;;;;;7.28;2.50;;;17.80;85.60;;;;;;6230059;28;20068;-81
2023/10/05 15:50:39;;;;;;;8.77;2.50;;;17.80;85.70;;;;;;6233503;28;20488;-80
2023/10/05 15:53:51;;;;;;;7.97;2.63;;;17.70;86.10;;;;;;6251324;28;20048;-80
2023/10/05 15:56:54;;;;;;;6.93;2.55;;;17.70;86.30;;;;;;6243433;28;20057;-81
2023/10/05 15:59:57;;;;;;;10.10;3.45;;;17.70;86.40;;;;;;6232434;28;20116;-82
2023/10/05 16:03:00;;;;;;;6.72;3.72;;;17.50;86.50;;;;;;6247538;28;20056;-80
2023/10/05 16:06:03;;;;;;;5.72;3.05;;;17.40;87.00;;;;;;6232239;28;20052;-80